Time;durP1;ratioP1;P1;durP2;ratioP2;P2;SDS_P1;SDS_P2;PMS_P1;PMS_P2;Temp;Humidity;BMP_temperature;BMP_pressure;BME280_temperature;BME280_humidity;BME280_pressure;Samples;Min_cycle;Max_cycle;Signal;HPM_P1;HPM_P2
2023/03/08 00:00:49;;;;;;;21.97;21.27;;;20.40;45.00;;;;;;5011580;28;20481;-52
2023/03/08 00:03:16;;;;;;;21.10;20.20;;;20.40;45.10;;;;;;5025217;28;20504;-56
2023/03/08 00:05:43;;;;;;;20.90;20.20;;;20.30;45.00;;;;;;5031291;28;20484;-55
2023/03/08 00:08:10;;;;;;;20.90;20.20;;;20.30;45.00;;;;;;5031161;28;20476;-52
2023/03/08 00:10:37;;;;;;;21.40;20.70;;;20.20;44.90;;;;;;5032856;28;20480;-54
2023/03/08 00:13:04;;;;;;;21.20;20.50;;;20.20;45.00;;;;;;5021821;28;20461;-55
2023/03/08 00:15:31;;;;;;;21.57;20.83;;;20.20;45.00;;;;;;5015106;28;20484;-55
2023/03/08 00:17:59;;;;;;;20.67;20.07;;;20.20;45.00;;;;;;5014901;28;20489;-51
2023/03/08 00:20:26;;;;;;;20.80;20.10;;;20.20;45.00;;;;;;5019311;28;20476;-51
2023/03/08 00:22:53;;;;;;;21.30;20.60;;;20.20;45.10;;;;;;5034618;28;20483;-52
2023/03/08 00:25:20;;;;;;;22.10;21.10;;;20.10;45.00;;;;;;5034567;28;20568;-51
2023/03/08 00:27:47;;;;;;;21.17;20.47;;;20.10;45.00;;;;;;5034681;28;20878;-52
2023/03/08 00:30:15;;;;;;;21.07;20.27;;;20.10;45.10;;;;;;5031765;28;20476;-55
2023/03/08 00:32:42;;;;;;;21.60;20.90;;;20.10;45.20;;;;;;5014574;28;20473;-51
2023/03/08 00:35:10;;;;;;;20.07;19.47;;;20.10;45.70;;;;;;5014721;28;20512;-51
2023/03/08 00:37:37;;;;;;;21.77;20.97;;;20.00;45.10;;;;;;5014642;28;20454;-50
2023/03/08 00:40:05;;;;;;;21.03;20.33;;;20.00;45.20;;;;;;5015420;28;20533;-51
2023/03/08 00:42:32;;;;;;;20.57;19.77;;;20.00;45.20;;;;;;5034200;28;20456;-51
2023/03/08 00:44:59;;;;;;;20.93;20.20;;;19.90;45.20;;;;;;5034013;28;20543;-50
2023/03/08 00:47:26;;;;;;;21.20;20.50;;;19.90;45.30;;;;;;5034217;28;20544;-51
2023/03/08 00:49:53;;;;;;;21.63;20.83;;;19.90;45.20;;;;;;5034219;28;20481;-52
2023/03/08 00:52:21;;;;;;;19.80;19.20;;;19.90;45.20;;;;;;5014774;28;20449;-51
2023/03/08 00:54:48;;;;;;;20.53;19.93;;;19.90;45.20;;;;;;5014353;28;20462;-51
2023/03/08 00:57:15;;;;;;;21.60;20.87;;;19.90;45.30;;;;;;5014256;28;20485;-51
2023/03/08 00:59:42;;;;;;;21.20;20.40;;;19.80;45.20;;;;;;5014332;28;20589;-51
2023/03/08 01:02:09;;;;;;;20.17;19.47;;;19.80;45.20;;;;;;5031151;28;20485;-51
2023/03/08 01:04:35;;;;;;;20.50;19.80;;;19.80;45.30;;;;;;5033698;28;20576;-50
2023/03/08 01:07:02;;;;;;;21.97;21.27;;;19.80;45.30;;;;;;5033752;28;20527;-52
2023/03/08 01:09:30;;;;;;;20.50;19.87;;;19.70;45.20;;;;;;5033912;28;20855;-51
2023/03/08 01:11:57;;;;;;;22.10;21.40;;;19.70;45.20;;;;;;5017797;28;20485;-50
2023/03/08 01:14:24;;;;;;;21.97;21.27;;;19.70;45.20;;;;;;5013782;28;20513;-51
2023/03/08 01:16:51;;;;;;;22.77;22.07;;;19.70;45.30;;;;;;5013794;28;20482;-51
2023/03/08 01:19:18;;;;;;;22.40;21.70;;;19.70;45.30;;;;;;5013997;28;20546;-51
2023/03/08 01:21:45;;;;;;;21.03;20.33;;;19.70;45.40;;;;;;5026847;28;20484;-52
2023/03/08 01:24:12;;;;;;;22.90;22.10;;;19.60;45.30;;;;;;5033516;28;20568;-51
2023/03/08 01:26:40;;;;;;;23.47;22.60;;;19.60;45.30;;;;;;5033565;28;20481;-51
2023/03/08 01:29:07;;;;;;;23.27;22.57;;;19.60;45.30;;;;;;5027801;28;20865;-51
2023/03/08 01:31:34;;;;;;;22.80;22.10;;;19.60;45.30;;;;;;5013596;28;20899;-51
2023/03/08 01:34:01;;;;;;;22.20;21.50;;;19.60;45.30;;;;;;5013387;28;20505;-50
2023/03/08 01:36:28;;;;;;;21.90;21.13;;;19.60;45.30;;;;;;5013691;28;20477;-50
2023/03/08 01:38:55;;;;;;;23.27;22.47;;;19.60;45.30;;;;;;5016784;28;20520;-51
2023/03/08 01:41:26;;;;;;;23.10;22.30;;;19.50;45.30;;;;;;5033273;28;20477;-52
2023/03/08 01:43:55;;;;;;;23.50;22.70;;;19.50;45.30;;;;;;5032936;28;20508;-50
2023/03/08 01:46:27;;;;;;;23.10;22.37;;;19.50;45.20;;;;;;5033081;28;20487;-51
2023/03/08 01:49:00;;;;;;;22.37;21.57;;;19.50;45.30;;;;;;5032695;28;20960;-51
2023/03/08 01:51:33;;;;;;;21.50;20.80;;;19.50;45.30;;;;;;5033056;28;20517;-51
2023/03/08 01:54:05;;;;;;;23.07;22.30;;;19.50;45.30;;;;;;5032806;28;20540;-50
2023/03/08 01:56:33;;;;;;;22.37;21.67;;;19.40;45.30;;;;;;5033172;28;20488;-50
2023/03/08 01:59:02;;;;;;;23.13;22.40;;;19.40;45.30;;;;;;5029049;28;20532;-51
2023/03/08 02:01:29;;;;;;;22.53;21.83;;;19.40;45.30;;;;;;5023302;28;20477;-52
2023/03/08 02:03:56;;;;;;;23.03;22.30;;;19.40;45.30;;;;;;5032626;28;20608;-51
2023/03/08 02:06:23;;;;;;;23.10;22.40;;;19.40;45.30;;;;;;5032710;28;20491;-51
2023/03/08 02:08:50;;;;;;;22.20;21.50;;;19.30;45.30;;;;;;5030306;28;20446;-53
2023/03/08 02:11:18;;;;;;;22.60;21.70;;;19.30;45.30;;;;;;5018564;28;20904;-51
2023/03/08 02:13:45;;;;;;;22.40;21.60;;;19.30;45.40;;;;;;5032450;28;20988;-51
2023/03/08 02:16:16;;;;;;;22.20;21.50;;;19.30;45.40;;;;;;5032433;28;20480;-50
2023/03/08 02:18:54;;;;;;;21.67;20.77;;;19.30;45.40;;;;;;5031287;28;20971;-51
2023/03/08 02:21:22;;;;;;;22.27;21.50;;;19.30;45.30;;;;;;5012617;28;20481;-51
2023/03/08 02:23:50;;;;;;;22.83;22.10;;;19.30;45.30;;;;;;5012576;28;21019;-51
2023/03/08 02:26:17;;;;;;;21.57;20.93;;;19.30;45.40;;;;;;5012506;28;20578;-54
2023/03/08 02:28:44;;;;;;;21.67;20.97;;;19.20;45.30;;;;;;5013566;28;20477;-51
2023/03/08 02:31:12;;;;;;;21.40;20.60;;;19.20;45.30;;;;;;5032106;28;20452;-54
2023/03/08 02:33:38;;;;;;;20.03;19.40;;;19.20;45.40;;;;;;5031477;28;20492;-51
2023/03/08 02:36:08;;;;;;;21.47;20.87;;;19.20;45.40;;;;;;5032239;28;20474;-51
2023/03/08 02:38:36;;;;;;;21.40;20.70;;;19.20;45.40;;;;;;5031780;28;20445;-51
2023/03/08 02:41:04;;;;;;;22.30;21.60;;;19.20;45.40;;;;;;5032155;28;20951;-51
2023/03/08 02:43:31;;;;;;;21.80;21.10;;;19.10;45.30;;;;;;5032363;28;20504;-51
2023/03/08 02:45:58;;;;;;;20.83;20.13;;;19.10;45.40;;;;;;5032001;28;20520;-50
2023/03/08 02:48:25;;;;;;;21.80;21.10;;;19.10;45.40;;;;;;5019981;28;20986;-51
2023/03/08 02:50:52;;;;;;;21.80;21.10;;;19.10;45.40;;;;;;5031002;28;20476;-50
2023/03/08 02:53:19;;;;;;;21.40;20.70;;;19.10;45.40;;;;;;5031579;28;20508;-52
2023/03/08 02:55:46;;;;;;;21.33;20.53;;;19.10;45.40;;;;;;5025199;28;20469;-51
2023/03/08 02:58:14;;;;;;;20.60;19.90;;;19.10;45.40;;;;;;5026805;28;20473;-51
2023/03/08 03:00:41;;;;;;;21.27;20.60;;;19.00;45.30;;;;;;5031916;28;20975;-50
2023/03/08 03:03:08;;;;;;;21.27;20.67;;;19.10;45.40;;;;;;5031605;28;20865;-50
2023/03/08 03:05:35;;;;;;;21.60;20.90;;;19.00;45.40;;;;;;5022499;28;20560;-51
2023/03/08 03:08:01;;;;;;;21.40;20.70;;;19.00;45.40;;;;;;5011978;28;20961;-51
2023/03/08 03:10:28;;;;;;;22.93;22.17;;;19.00;45.40;;;;;;5012089;28;20533;-51
2023/03/08 03:12:55;;;;;;;20.87;20.17;;;19.00;45.50;;;;;;5011559;28;20446;-52
2023/03/08 03:15:24;;;;;;;23.03;22.33;;;19.00;45.50;;;;;;5018821;28;20476;-51
2023/03/08 03:17:50;;;;;;;21.47;20.77;;;19.00;45.40;;;;;;5031633;28;20479;-51
2023/03/08 03:20:18;;;;;;;21.33;20.73;;;18.90;45.30;;;;;;5031553;28;20527;-51
2023/03/08 03:22:46;;;;;;;22.83;22.13;;;18.90;45.30;;;;;;5031338;28;20480;-51
2023/03/08 03:25:13;;;;;;;22.67;21.97;;;18.90;45.30;;;;;;5025552;28;20492;-50
2023/03/08 03:27:40;;;;;;;22.00;21.30;;;18.90;45.30;;;;;;5011706;28;20540;-51
2023/03/08 03:30:09;;;;;;;21.77;21.07;;;18.90;45.30;;;;;;5011832;28;20894;-51
2023/03/08 03:32:37;;;;;;;21.30;20.60;;;18.90;45.30;;;;;;5011563;28;20477;-51
2023/03/08 03:35:04;;;;;;;21.40;20.80;;;18.90;45.30;;;;;;5015597;28;20492;-50
2023/03/08 03:37:33;;;;;;;21.07;20.47;;;18.90;45.40;;;;;;5031552;28;20551;-51
2023/03/08 03:40:00;;;;;;;21.17;20.57;;;18.80;45.30;;;;;;5031363;28;20484;-52
2023/03/08 03:42:27;;;;;;;21.30;20.70;;;18.90;45.40;;;;;;5031135;28;20983;-51
2023/03/08 03:44:54;;;;;;;20.73;20.03;;;18.80;45.30;;;;;;5016623;28;20564;-51
2023/03/08 03:47:21;;;;;;;21.50;20.80;;;18.80;45.30;;;;;;5015623;28;20482;-53
2023/03/08 03:49:49;;;;;;;20.87;20.20;;;18.80;45.90;;;;;;5015765;28;20488;-53
2023/03/08 03:52:16;;;;;;;20.83;20.23;;;18.80;45.40;;;;;;5015546;28;20524;-53
2023/03/08 03:54:42;;;;;;;21.63;20.93;;;18.80;45.30;;;;;;5029980;28;20882;-56
2023/03/08 03:57:09;;;;;;;21.77;21.07;;;18.80;45.30;;;;;;5035422;28;20906;-55
2023/03/08 03:59:36;;;;;;;20.90;20.30;;;18.80;45.40;;;;;;5035254;28;20877;-55
2023/03/08 04:02:03;;;;;;;21.27;20.67;;;18.80;45.30;;;;;;5035381;28;20476;-52
2023/03/08 04:04:30;;;;;;;20.80;20.20;;;18.80;45.40;;;;;;5022619;28;20556;-54
2023/03/08 04:06:58;;;;;;;21.20;20.60;;;18.80;45.40;;;;;;5016030;28;20516;-50
2023/03/08 04:09:25;;;;;;;21.90;21.20;;;18.70;45.30;;;;;;5015289;28;20450;-50
2023/03/08 04:11:52;;;;;;;21.70;21.00;;;18.70;45.30;;;;;;5019392;28;20484;-51
2023/03/08 04:14:19;;;;;;;22.23;21.33;;;18.70;45.30;;;;;;5034741;28;20504;-52
2023/03/08 04:16:46;;;;;;;22.20;21.50;;;18.70;45.30;;;;;;5034965;28;20480;-52
2023/03/08 04:19:13;;;;;;;23.57;22.80;;;18.70;45.30;;;;;;5034904;28;20716;-53
2023/03/08 04:21:40;;;;;;;23.33;22.63;;;18.70;45.30;;;;;;5032693;28;20477;-51
2023/03/08 04:24:09;;;;;;;21.47;20.80;;;18.70;45.30;;;;;;5015926;28;20493;-52
2023/03/08 04:26:36;;;;;;;21.67;21.07;;;18.70;45.40;;;;;;5014685;28;20568;-53
2023/03/08 04:29:05;;;;;;;22.20;21.50;;;18.70;45.50;;;;;;5014797;28;20450;-54
2023/03/08 04:31:33;;;;;;;22.57;21.77;;;18.70;45.50;;;;;;5015619;28;20935;-51
2023/03/08 04:34:00;;;;;;;23.30;22.60;;;18.70;45.50;;;;;;5034402;28;20469;-50
2023/03/08 04:36:27;;;;;;;23.10;22.40;;;18.70;45.60;;;;;;5034407;28;20954;-51
2023/03/08 04:38:54;;;;;;;22.03;21.40;;;18.70;45.60;;;;;;5034365;28;20504;-50
2023/03/08 04:41:23;;;;;;;21.10;20.43;;;18.70;45.60;;;;;;5034159;28;20477;-54
2023/03/08 04:43:51;;;;;;;20.50;19.90;;;18.70;45.60;;;;;;5033914;28;20564;-52
2023/03/08 04:46:20;;;;;;;21.20;20.60;;;18.70;45.60;;;;;;5034224;28;21011;-51
2023/03/08 04:48:47;;;;;;;21.40;20.80;;;18.70;45.60;;;;;;5034290;28;20948;-52
2023/03/08 04:51:15;;;;;;;20.37;19.77;;;18.70;45.60;;;;;;5021685;28;20897;-51
2023/03/08 04:53:44;;;;;;;21.10;20.40;;;18.60;45.50;;;;;;5014211;28;20497;-53
2023/03/08 04:56:12;;;;;;;22.77;22.03;;;18.60;45.50;;;;;;5013654;28;20473;-51
2023/03/08 04:58:40;;;;;;;21.53;20.73;;;18.60;45.50;;;;;;5018435;28;20979;-50
2023/03/08 05:01:12;;;;;;;23.33;22.63;;;18.60;45.50;;;;;;5034032;28;20535;-51
2023/03/08 05:03:39;;;;;;;22.37;21.67;;;18.60;45.50;;;;;;5033868;28;20560;-50
2023/03/08 05:06:07;;;;;;;22.90;22.20;;;18.60;45.50;;;;;;5033883;28;20901;-51
2023/03/08 05:08:33;;;;;;;21.83;21.23;;;18.60;45.50;;;;;;5030236;28;20481;-51
2023/03/08 05:11:01;;;;;;;22.30;21.70;;;18.60;45.50;;;;;;5028665;28;20528;-52
2023/03/08 05:13:30;;;;;;;21.60;21.00;;;18.60;45.50;;;;;;5033631;28;20457;-52
2023/03/08 05:15:58;;;;;;;22.57;21.87;;;18.60;45.50;;;;;;5033789;28;20520;-53
2023/03/08 05:18:25;;;;;;;22.30;21.70;;;18.60;45.40;;;;;;5031236;28;20548;-50
2023/03/08 05:20:57;;;;;;;21.80;21.20;;;18.60;45.50;;;;;;5013952;28;20477;-52
2023/03/08 05:23:24;;;;;;;21.83;21.20;;;18.60;45.50;;;;;;5013693;28;20520;-50
2023/03/08 05:25:55;;;;;;;23.00;22.30;;;18.60;45.60;;;;;;5013648;28;21052;-50
2023/03/08 05:28:23;;;;;;;20.53;19.93;;;18.60;45.60;;;;;;5014914;28;20477;-51
2023/03/08 05:30:50;;;;;;;22.67;21.97;;;18.50;45.50;;;;;;5033470;28;20485;-50
2023/03/08 05:33:18;;;;;;;21.53;20.93;;;18.50;45.40;;;;;;5033116;28;20505;-50
2023/03/08 05:35:53;;;;;;;21.57;20.93;;;18.50;45.40;;;;;;5033313;28;20484;-51
2023/03/08 05:38:20;;;;;;;22.27;21.67;;;18.50;45.40;;;;;;5032313;28;20807;-54
2023/03/08 05:40:47;;;;;;;23.00;22.30;;;18.50;45.30;;;;;;5014598;28;20481;-52
2023/03/08 05:43:14;;;;;;;22.73;22.07;;;18.50;45.40;;;;;;5013039;28;20516;-56
2023/03/08 05:45:41;;;;;;;22.00;21.17;;;18.50;45.50;;;;;;5013347;28;20517;-50
2023/03/08 05:48:08;;;;;;;23.27;22.30;;;18.50;45.50;;;;;;5013296;28;20489;-52
2023/03/08 05:50:37;;;;;;;23.03;22.23;;;18.50;45.60;;;;;;5014190;28;20486;-52
2023/03/08 05:53:04;;;;;;;24.03;22.93;;;18.50;46.20;;;;;;5032937;28;20488;-54
2023/03/08 05:55:30;;;;;;;23.83;22.73;;;18.50;47.20;;;;;;5032966;28;20537;-50
2023/03/08 05:57:57;;;;;;;24.37;23.07;;;18.50;48.10;;;;;;5015450;28;20877;-50
2023/03/08 06:00:25;;;;;;;24.50;22.67;;;18.50;49.30;;;;;;5020779;28;20535;-50
2023/03/08 06:02:52;;;;;;;25.33;23.93;;;18.50;49.70;;;;;;5012838;28;20530;-52
2023/03/08 06:05:19;;;;;;;26.67;24.83;;;18.50;49.60;;;;;;5012825;28;20505;-50
2023/03/08 06:07:47;;;;;;;25.00;23.90;;;18.50;49.40;;;;;;5011982;28;20481;-51
2023/03/08 06:10:14;;;;;;;24.00;22.83;;;18.50;49.30;;;;;;5012971;28;20535;-52
2023/03/08 06:12:41;;;;;;;23.53;22.30;;;18.50;49.10;;;;;;5012482;28;20768;-51
2023/03/08 06:15:08;;;;;;;24.87;23.50;;;18.50;48.90;;;;;;5012792;28;20520;-54
2023/03/08 06:17:35;;;;;;;22.83;21.83;;;18.50;48.80;;;;;;5012846;28;20842;-50
2023/03/08 06:20:02;;;;;;;24.77;23.60;;;18.50;48.70;;;;;;5012738;28;20477;-50
2023/03/08 06:22:29;;;;;;;22.27;20.80;;;18.50;48.50;;;;;;5012612;28;20482;-50
2023/03/08 06:24:57;;;;;;;22.90;21.70;;;18.50;48.50;;;;;;5012533;28;20462;-55
2023/03/08 06:27:24;;;;;;;22.33;21.30;;;18.50;48.30;;;;;;5012489;28;20573;-52
2023/03/08 06:29:51;;;;;;;22.83;21.83;;;18.50;48.20;;;;;;5012653;28;20446;-53
2023/03/08 06:32:18;;;;;;;23.80;22.50;;;18.50;48.10;;;;;;5012357;28;20485;-52
2023/03/08 06:34:46;;;;;;;23.37;22.30;;;18.50;48.00;;;;;;5012435;28;21028;-50
2023/03/08 06:37:13;;;;;;;23.30;22.30;;;18.50;47.90;;;;;;5012630;28;20450;-50
2023/03/08 06:39:40;;;;;;;22.33;21.20;;;18.50;47.90;;;;;;5012331;28;20450;-53
2023/03/08 06:42:08;;;;;;;22.60;21.70;;;18.50;47.80;;;;;;5012266;28;20565;-50
2023/03/08 06:44:35;;;;;;;22.43;21.70;;;18.50;47.70;;;;;;5012060;28;20536;-50
2023/03/08 06:47:02;;;;;;;23.93;23.03;;;18.50;47.60;;;;;;5012162;28;20569;-55
2023/03/08 06:49:29;;;;;;;22.23;21.43;;;18.50;47.50;;;;;;5012368;28;20473;-52
2023/03/08 06:51:56;;;;;;;22.23;21.40;;;18.40;47.30;;;;;;5012117;28;20489;-50
2023/03/08 06:54:23;;;;;;;23.40;22.60;;;18.40;47.30;;;;;;5012032;28;20574;-52
2023/03/08 06:56:50;;;;;;;21.60;20.70;;;18.50;47.30;;;;;;5012106;28;20446;-50
2023/03/08 06:59:18;;;;;;;21.37;20.50;;;18.40;47.20;;;;;;5012179;28;20480;-50
2023/03/08 07:01:45;;;;;;;24.07;23.27;;;18.40;47.10;;;;;;5011836;28;20509;-50
2023/03/08 07:04:12;;;;;;;23.57;22.47;;;18.40;47.10;;;;;;5011923;28;20501;-50
2023/03/08 07:06:38;;;;;;;25.33;24.13;;;18.40;47.10;;;;;;5011864;28;20516;-50
2023/03/08 07:09:05;;;;;;;23.50;22.30;;;18.40;47.00;;;;;;5011969;28;20488;-51
2023/03/08 07:11:33;;;;;;;22.90;22.10;;;18.40;47.00;;;;;;5011775;28;20493;-50
2023/03/08 07:14:00;;;;;;;24.57;23.47;;;18.40;46.90;;;;;;5011850;28;20547;-50
2023/03/08 07:16:28;;;;;;;24.20;23.30;;;18.40;46.90;;;;;;5011881;28;20489;-50
2023/03/08 07:18:55;;;;;;;23.97;22.93;;;18.40;46.90;;;;;;5011411;28;20486;-51
2023/03/08 07:21:23;;;;;;;22.97;21.93;;;18.40;46.80;;;;;;5011847;28;20841;-51
2023/03/08 07:23:52;;;;;;;22.80;21.17;;;18.40;46.80;;;;;;5012074;28;20470;-51
2023/03/08 07:26:19;;;;;;;23.57;22.83;;;18.40;46.70;;;;;;5023223;28;20845;-50
2023/03/08 07:28:50;;;;;;;24.93;23.90;;;18.40;48.20;;;;;;5031643;28;20978;-51
2023/03/08 07:31:17;;;;;;;18.70;18.00;;;18.40;48.50;;;;;;5031485;28;20533;-50
2023/03/08 07:33:46;;;;;;;17.50;17.00;;;18.50;48.10;;;;;;5031267;28;20472;-54
2023/03/08 07:36:13;;;;;;;17.07;16.37;;;18.50;47.60;;;;;;5014970;28;20442;-50
2023/03/08 07:38:41;;;;;;;19.03;18.43;;;18.60;47.90;;;;;;5016245;28;20523;-49
2023/03/08 07:41:08;;;;;;;19.93;19.13;;;18.70;48.00;;;;;;5031451;28;20468;-48
2023/03/08 07:43:35;;;;;;;16.77;16.20;;;18.80;48.40;;;;;;5029986;28;20481;-49
2023/03/08 07:46:03;;;;;;;16.10;15.50;;;18.90;48.80;;;;;;5029453;28;20967;-51
2023/03/08 07:48:31;;;;;;;16.60;16.10;;;19.00;48.50;;;;;;5031924;28;20441;-49
2023/03/08 07:51:05;;;;;;;15.83;15.43;;;19.10;48.50;;;;;;5031969;28;20488;-50
2023/03/08 07:53:33;;;;;;;16.23;15.63;;;19.20;48.50;;;;;;5031877;28;20495;-50
2023/03/08 07:56:00;;;;;;;16.30;15.80;;;19.30;48.40;;;;;;5032025;28;20823;-50
2023/03/08 07:58:27;;;;;;;16.50;16.00;;;19.40;48.30;;;;;;5032331;28;20527;-51
2023/03/08 08:00:54;;;;;;;16.00;15.57;;;19.40;48.10;;;;;;5032083;28;20488;-54
2023/03/08 08:03:22;;;;;;;16.13;15.63;;;19.40;48.00;;;;;;5031653;28;20511;-51
2023/03/08 08:05:49;;;;;;;15.73;15.33;;;19.50;47.90;;;;;;5031882;28;20441;-52
2023/03/08 08:08:17;;;;;;;16.33;15.83;;;19.60;47.80;;;;;;5031906;28;20472;-53
2023/03/08 08:10:44;;;;;;;15.50;15.10;;;19.60;47.60;;;;;;5032185;28;20491;-50
2023/03/08 08:13:11;;;;;;;15.80;15.30;;;19.60;47.50;;;;;;5031551;28;20480;-50
2023/03/08 08:15:38;;;;;;;15.40;15.00;;;19.70;47.30;;;;;;5031752;28;20484;-50
2023/03/08 08:18:05;;;;;;;15.90;15.40;;;19.70;47.30;;;;;;5031771;28;20503;-48
2023/03/08 08:20:32;;;;;;;17.33;16.73;;;19.70;47.10;;;;;;5032317;28;20837;-50
2023/03/08 08:22:59;;;;;;;15.77;15.17;;;19.80;47.10;;;;;;5031457;28;20488;-49
2023/03/08 08:25:27;;;;;;;15.20;14.80;;;19.80;47.00;;;;;;5031489;28;20476;-50
2023/03/08 08:27:54;;;;;;;15.60;15.00;;;19.80;46.80;;;;;;5031152;28;20563;-50
2023/03/08 08:30:21;;;;;;;16.43;15.83;;;19.90;46.80;;;;;;5031666;28;20853;-50
2023/03/08 08:32:48;;;;;;;16.10;15.50;;;19.90;46.70;;;;;;5034877;28;20487;-48
2023/03/08 08:35:15;;;;;;;16.30;15.80;;;19.90;46.50;;;;;;5035216;28;20932;-52
2023/03/08 08:37:42;;;;;;;16.10;15.70;;;19.90;46.50;;;;;;5035173;28;20469;-50
2023/03/08 08:40:11;;;;;;;16.60;15.97;;;19.90;46.40;;;;;;5035266;28;20552;-55
2023/03/08 08:42:39;;;;;;;15.87;15.40;;;19.90;46.30;;;;;;5035153;28;20511;-48
2023/03/08 08:45:08;;;;;;;16.47;16.07;;;20.00;46.30;;;;;;4998812;22;20550;-63
2023/03/08 08:47:35;;;;;;;16.67;16.13;;;20.00;46.20;;;;;;4952985;29;20601;-63
2023/03/08 08:50:02;;;;;;;16.30;15.90;;;19.90;46.10;;;;;;4953217;28;20485;-62
2023/03/08 08:52:28;;;;;;;16.53;16.03;;;19.90;46.10;;;;;;4953104;29;20873;-63
2023/03/08 08:54:56;;;;;;;17.30;16.80;;;19.90;46.00;;;;;;4952922;28;20896;-64
2023/03/08 08:57:23;;;;;;;16.70;16.20;;;20.00;46.00;;;;;;4953013;28;20456;-59
2023/03/08 08:59:51;;;;;;;17.00;16.50;;;20.00;45.90;;;;;;4952899;28;20485;-63
2023/03/08 09:02:18;;;;;;;17.80;17.10;;;20.00;45.90;;;;;;4952918;28;20536;-63
2023/03/08 09:04:45;;;;;;;16.13;15.73;;;20.00;45.80;;;;;;4953024;28;20508;-64
2023/03/08 09:07:12;;;;;;;15.60;15.10;;;19.90;45.70;;;;;;4953022;28;20571;-62
2023/03/08 09:09:39;;;;;;;16.63;16.13;;;20.00;45.80;;;;;;4952902;28;20956;-63
2023/03/08 09:12:06;;;;;;;15.90;15.40;;;19.90;45.60;;;;;;4953289;28;20545;-63
2023/03/08 09:14:34;;;;;;;16.47;16.07;;;19.90;45.60;;;;;;4952879;28;20508;-63
2023/03/08 09:17:05;;;;;;;16.83;16.33;;;19.90;45.60;;;;;;4953189;28;20452;-63
2023/03/08 09:19:32;;;;;;;15.80;15.40;;;19.90;45.60;;;;;;4952592;28;20859;-63
2023/03/08 09:21:59;;;;;;;16.17;15.67;;;19.90;45.50;;;;;;4952393;28;20827;-64
2023/03/08 09:24:25;;;;;;;15.70;15.20;;;19.90;45.50;;;;;;4952336;28;21016;-59
2023/03/08 09:26:52;;;;;;;16.00;15.50;;;19.80;45.40;;;;;;4952387;28;20485;-61
2023/03/08 09:29:19;;;;;;;15.50;15.10;;;19.80;45.40;;;;;;4952388;28;20488;-61
2023/03/08 09:31:46;;;;;;;15.53;15.13;;;19.80;45.40;;;;;;4952336;28;20476;-63
2023/03/08 09:34:15;;;;;;;14.93;14.53;;;19.90;45.40;;;;;;4952268;28;20501;-64
2023/03/08 09:36:42;;;;;;;16.30;15.90;;;19.80;45.30;;;;;;4952487;28;20456;-63
2023/03/08 09:39:11;;;;;;;15.67;15.27;;;19.80;45.40;;;;;;4952578;28;20476;-64
2023/03/08 09:41:50;;;;;;;15.80;15.30;;;19.80;45.30;;;;;;4951981;28;20484;-63
2023/03/08 09:44:44;;;;;;;15.87;15.40;;;19.80;45.30;;;;;;4952039;28;20484;-64
2023/03/08 09:47:20;;;;;;;16.73;16.23;;;19.70;45.20;;;;;;4952133;28;21045;-59
2023/03/08 09:49:52;;;;;;;16.10;15.60;;;19.70;45.20;;;;;;4952134;28;20943;-62
2023/03/08 09:52:26;;;;;;;15.50;15.10;;;19.70;45.20;;;;;;4951920;28;20484;-66
2023/03/08 09:54:54;;;;;;;16.00;15.40;;;19.70;45.20;;;;;;4951970;28;20500;-63
2023/03/08 09:57:25;;;;;;;16.10;15.70;;;19.70;45.20;;;;;;4952067;28;20875;-64
2023/03/08 09:59:55;;;;;;;15.60;15.20;;;19.60;45.20;;;;;;4952025;28;20484;-63
2023/03/08 10:02:33;;;;;;;16.50;15.90;;;19.70;45.20;;;;;;4951777;28;20879;-64
2023/03/08 10:05:08;;;;;;;16.03;15.63;;;19.60;45.20;;;;;;4951824;28;20552;-63
2023/03/08 10:07:45;;;;;;;15.37;14.90;;;19.60;45.20;;;;;;4951880;28;20496;-63
2023/03/08 10:10:22;;;;;;;16.60;16.10;;;19.60;45.20;;;;;;4952074;28;20484;-63
2023/03/08 10:13:02;;;;;;;16.63;16.13;;;19.60;45.20;;;;;;4951597;28;20531;-63
2023/03/08 10:15:31;;;;;;;15.70;15.30;;;19.60;45.20;;;;;;4951770;28;20558;-63
2023/03/08 10:18:05;;;;;;;16.20;15.80;;;19.50;45.10;;;;;;4952063;28;20552;-61
2023/03/08 10:20:36;;;;;;;15.10;14.70;;;19.50;45.20;;;;;;4952291;28;20477;-64
2023/03/08 10:23:12;;;;;;;15.07;14.67;;;19.50;45.10;;;;;;4951805;28;20449;-62
2023/03/08 10:25:39;;;;;;;15.10;14.70;;;19.50;45.10;;;;;;4952061;28;20513;-64
2023/03/08 10:28:13;;;;;;;15.00;14.50;;;19.50;45.10;;;;;;4951491;28;20571;-62
2023/03/08 10:30:44;;;;;;;15.30;14.90;;;19.50;45.40;;;;;;4951683;28;20491;-64
2023/03/08 10:33:13;;;;;;;15.33;14.93;;;19.60;45.20;;;;;;4951300;28;20492;-64
2023/03/08 10:35:56;;;;;;;15.40;15.00;;;19.60;45.20;;;;;;4951449;28;20477;-63
2023/03/08 10:38:25;;;;;;;15.03;14.63;;;19.60;45.20;;;;;;4951408;28;20544;-63
2023/03/08 10:41:00;;;;;;;16.20;15.77;;;19.60;45.10;;;;;;4952432;28;20476;-63
2023/03/08 10:43:30;;;;;;;15.83;15.43;;;19.60;45.10;;;;;;4951085;28;20486;-64
2023/03/08 10:46:02;;;;;;;15.60;15.20;;;19.60;45.10;;;;;;4951311;28;20878;-64
2023/03/08 10:48:29;;;;;;;15.50;15.10;;;19.60;45.10;;;;;;4951127;28;20520;-63
2023/03/08 10:51:01;;;;;;;16.10;15.67;;;19.60;45.10;;;;;;4951181;28;20972;-63
2023/03/08 10:53:29;;;;;;;16.13;15.73;;;19.60;45.10;;;;;;4950642;28;20587;-64
2023/03/08 10:55:58;;;;;;;16.70;16.20;;;19.60;45.00;;;;;;4951244;28;20497;-63
2023/03/08 10:58:31;;;;;;;16.40;15.97;;;19.60;45.00;;;;;;4951419;28;20441;-64
2023/03/08 11:01:00;;;;;;;15.70;15.30;;;19.60;45.00;;;;;;4951079;28;20449;-64
2023/03/08 11:03:28;;;;;;;15.77;15.37;;;19.60;45.00;;;;;;4950849;28;20521;-63
2023/03/08 11:05:57;;;;;;;16.13;15.73;;;19.60;45.00;;;;;;4951027;28;20928;-64
2023/03/08 11:08:28;;;;;;;16.07;15.67;;;19.50;44.90;;;;;;4950839;28;20571;-61
2023/03/08 11:11:03;;;;;;;15.40;15.00;;;19.60;45.00;;;;;;4953417;28;20962;-63
2023/03/08 11:13:31;;;;;;;15.33;14.93;;;19.50;44.90;;;;;;4952553;28;20488;-63
2023/03/08 11:16:16;;;;;;;15.20;14.80;;;19.50;44.90;;;;;;4954168;28;20459;-63
2023/03/08 11:18:51;;;;;;;16.50;16.03;;;19.50;44.90;;;;;;4951328;28;20480;-64
2023/03/08 11:21:26;;;;;;;15.83;15.43;;;19.50;44.90;;;;;;4950838;28;20492;-64
2023/03/08 11:24:04;;;;;;;15.77;15.37;;;19.50;44.90;;;;;;4950879;28;20515;-62
2023/03/08 11:26:38;;;;;;;16.27;15.77;;;19.50;44.90;;;;;;4950881;28;20480;-64
2023/03/08 11:29:17;;;;;;;16.10;15.70;;;19.40;44.90;;;;;;4950797;28;20571;-64
2023/03/08 11:31:51;;;;;;;15.97;15.57;;;19.50;44.90;;;;;;4950495;28;20488;-65
2023/03/08 11:34:46;;;;;;;14.90;14.50;;;19.40;44.90;;;;;;4950573;28;20547;-64
2023/03/08 11:37:18;;;;;;;16.40;15.97;;;19.40;44.90;;;;;;4952587;28;20460;-63
2023/03/08 11:39:53;;;;;;;15.77;15.37;;;19.40;44.90;;;;;;4951130;28;20865;-61
2023/03/08 11:42:28;;;;;;;16.30;15.90;;;19.40;44.90;;;;;;4950544;28;20531;-63
2023/03/08 11:45:11;;;;;;;15.73;15.33;;;19.40;44.90;;;;;;4950486;28;20898;-64
2023/03/08 11:47:57;;;;;;;15.17;14.77;;;19.40;44.90;;;;;;4951141;28;20723;-64
2023/03/08 11:50:29;;;;;;;15.40;15.00;;;19.40;44.90;;;;;;4950958;28;20868;-67
2023/03/08 11:53:04;;;;;;;15.50;15.10;;;19.40;44.90;;;;;;4950317;28;20456;-64
2023/03/08 11:55:54;;;;;;;15.70;15.20;;;19.40;44.90;;;;;;4950672;28;20565;-64
2023/03/08 11:58:27;;;;;;;15.10;14.70;;;19.40;44.90;;;;;;4950682;28;20441;-63
2023/03/08 12:00:59;;;;;;;16.47;15.97;;;19.40;45.40;;;;;;4950679;28;20476;-63
2023/03/08 12:03:30;;;;;;;15.33;14.93;;;19.30;44.80;;;;;;4950132;28;20488;-64
2023/03/08 12:06:00;;;;;;;16.43;16.00;;;19.30;44.80;;;;;;4950845;28;20975;-64
2023/03/08 12:08:31;;;;;;;15.73;15.33;;;19.30;44.80;;;;;;4953913;28;20484;-64
2023/03/08 12:11:04;;;;;;;16.57;16.13;;;19.30;44.80;;;;;;4954032;28;20487;-62
2023/03/08 12:13:34;;;;;;;16.57;16.07;;;19.30;44.80;;;;;;4953410;28;20883;-64
2023/03/08 12:16:09;;;;;;;15.93;15.53;;;19.40;44.90;;;;;;4953488;28;20476;-65
2023/03/08 12:18:43;;;;;;;17.13;16.63;;;19.40;44.90;;;;;;4953560;28;20476;-63
2023/03/08 12:21:22;;;;;;;15.77;15.37;;;19.40;44.90;;;;;;4953457;28;20573;-65
2023/03/08 12:23:58;;;;;;;14.53;14.20;;;19.40;44.80;;;;;;4953917;28;20500;-63
2023/03/08 12:26:32;;;;;;;15.43;15.03;;;19.40;44.80;;;;;;4953532;28;20503;-64
2023/03/08 12:29:03;;;;;;;15.20;14.80;;;19.40;44.80;;;;;;4953320;28;20575;-64
2023/03/08 12:31:33;;;;;;;14.50;14.20;;;19.40;44.80;;;;;;4955849;28;20448;-64
2023/03/08 12:34:00;;;;;;;15.80;15.30;;;19.40;44.80;;;;;;4953342;28;20500;-64
2023/03/08 12:36:38;;;;;;;15.87;15.47;;;19.40;44.80;;;;;;4953318;28;20797;-62